Spokane, WA (99211)

9:48 AM PST on February 13, 2016 (GMT -0800)
I-90 & Sprague Ave | | Change Station
CLOSE
Current Station
Personal Weather Station
Location: Spokane Valley, WA
Elevation: 1991 ft
Nearby Weather Stations

Elev 1991 ft 47.65 °N, 117.31 °W | Updated 5 seconds ago

Mostly Cloudy
Mostly Cloudy
47.1 °F
Feels Like 47 °F
N
2.5
Wind Variable Wind from South
Gusts 2.5 mph

Today
High -- | Low -- °F
--% Chance of Precip.
Yesterday
High -- | Low -- °F
Precip. -- in
Pressure 30.23 in
Visibility 10.0 miles
Clouds Mostly Cloudy 1700 ft
Mostly Cloudy 8000 ft
Windchill 47 °F
Dew Point 34 °F
Humidity 59%
Rainfall 0.00 in
Snow Depth Not available.
6:58 AM 5:08 PM
Waxing Crescent, 32% visible
SPECI KSFF 131710Z 24008KT 10SM BKN017 BKN080 05/02 A3023 RMK AO2 T00500017
Pressure 30.23 in
Visibility 10.0 miles
Clouds Mostly Cloudy 1700 ft
Mostly Cloudy 8000 ft
Windchill 47 °F
Dew Point 34 °F
Humidity 59%
Rainfall 0.00 in
Snow Depth Not available.
6:58 AM 5:08 PM
Waxing Crescent, 32% visible
SPECI KSFF 131710Z 24008KT 10SM BKN017 BKN080 05/02 A3023 RMK AO2 T00500017

10-Day Weather Forecast

Almanac

Astronomy

Feb. 13, 2016 Rise Set
Actual Time
Civil Twilight
Nautical Twilight
Astronomical Twilight
Moon
Length of Visible Light
Length of Day
Tomorrow will be .
, % of the Moon is Illuminated

Today's Extremes

State Highs State Lows

Community

WunderPhotos

Upload Photos

1,892,623 photos uploaded!

WunderBlog® & News

Nearby

Air Quality

  Air Quality AQ Index Pollutant
Not available.

Snow Depth

Station Depth Elevation

Earthquake Activity

City Distance Mag. Time & Date
Minimum magnitude displayed is 2.5.

Coastal Water Temperatures

Place Temperature

Stations

Nearby Weather Stations

Station Location Temp. Windchill Dew Point Humidity Wind Precip. Elev Updated Type
                   

Watches & Warnings

There are currently no watches in effect.